sensor_id;sensor_type;location;lat;lon;timestamp;P1;durP1;ratioP1;P2;durP2;ratioP2
21472;SDS011;10898;48.072;11.682;2023-11-21T00:00:56;4.40;;;1.60;;
21472;SDS011;10898;48.072;11.682;2023-11-21T00:02:58;3.77;;;1.60;;
21472;SDS011;10898;48.072;11.682;2023-11-21T00:04:59;2.08;;;1.23;;
21472;SDS011;10898;48.072;11.682;2023-11-21T00:07:01;2.40;;;1.30;;
21472;SDS011;10898;48.072;11.682;2023-11-21T00:09:03;2.88;;;1.27;;
21472;SDS011;10898;48.072;11.682;2023-11-21T00:11:06;4.22;;;1.63;;
21472;SDS011;10898;48.072;11.682;2023-11-21T00:13:08;5.20;;;1.80;;
21472;SDS011;10898;48.072;11.682;2023-11-21T00:15:10;4.50;;;1.60;;
21472;SDS011;10898;48.072;11.682;2023-11-21T00:17:14;2.83;;;1.30;;
21472;SDS011;10898;48.072;11.682;2023-11-21T00:19:16;2.97;;;1.48;;
21472;SDS011;10898;48.072;11.682;2023-11-21T00:21:18;3.23;;;1.67;;
21472;SDS011;10898;48.072;11.682;2023-11-21T00:23:20;3.10;;;1.30;;
21472;SDS011;10898;48.072;11.682;2023-11-21T00:25:22;6.50;;;1.67;;
21472;SDS011;10898;48.072;11.682;2023-11-21T00:27:23;2.90;;;1.20;;
21472;SDS011;10898;48.072;11.682;2023-11-21T00:29:25;2.22;;;1.10;;
21472;SDS011;10898;48.072;11.682;2023-11-21T00:31:27;5.85;;;1.40;;
21472;SDS011;10898;48.072;11.682;2023-11-21T00:33:29;3.37;;;1.40;;
21472;SDS011;10898;48.072;11.682;2023-11-21T00:35:31;1.40;;;1.20;;
21472;SDS011;10898;48.072;11.682;2023-11-21T00:37:33;3.63;;;1.60;;
21472;SDS011;10898;48.072;11.682;2023-11-21T00:39:35;1.98;;;1.23;;
21472;SDS011;10898;48.072;11.682;2023-11-21T00:41:36;4.07;;;1.20;;
21472;SDS011;10898;48.072;11.682;2023-11-21T00:43:38;0.97;;;0.93;;
21472;SDS011;10898;48.072;11.682;2023-11-21T00:45:40;3.38;;;1.30;;
21472;SDS011;10898;48.072;11.682;2023-11-21T00:47:42;4.75;;;1.40;;
21472;SDS011;10898;48.072;11.682;2023-11-21T00:49:44;2.33;;;1.20;;
21472;SDS011;10898;48.072;11.682;2023-11-21T00:51:46;2.00;;;1.07;;
21472;SDS011;10898;48.072;11.682;2023-11-21T00:53:47;3.27;;;1.20;;
21472;SDS011;10898;48.072;11.682;2023-11-21T00:55:50;2.78;;;1.17;;
21472;SDS011;10898;48.072;11.682;2023-11-21T00:57:54;4.07;;;1.20;;
21472;SDS011;10898;48.072;11.682;2023-11-21T00:59:56;2.87;;;1.20;;
21472;SDS011;10898;48.072;11.682;2023-11-21T01:01:58;3.43;;;1.20;;
21472;SDS011;10898;48.072;11.682;2023-11-21T01:04:01;2.53;;;1.20;;
21472;SDS011;10898;48.072;11.682;2023-11-21T01:06:04;2.67;;;1.13;;
21472;SDS011;10898;48.072;11.682;2023-11-21T01:08:09;4.15;;;1.67;;
21472;SDS011;10898;48.072;11.682;2023-11-21T01:12:13;1.40;;;1.30;;
21472;SDS011;10898;48.072;11.682;2023-11-21T01:14:15;3.73;;;1.30;;
21472;SDS011;10898;48.072;11.682;2023-11-21T01:16:18;2.85;;;1.38;;
21472;SDS011;10898;48.072;11.682;2023-11-21T01:18:20;1.23;;;1.10;;
21472;SDS011;10898;48.072;11.682;2023-11-21T01:20:22;1.83;;;1.35;;
21472;SDS011;10898;48.072;11.682;2023-11-21T01:22:25;1.45;;;1.08;;
21472;SDS011;10898;48.072;11.682;2023-11-21T01:24:27;2.78;;;1.00;;
21472;SDS011;10898;48.072;11.682;2023-11-21T01:26:29;4.53;;;1.30;;
21472;SDS011;10898;48.072;11.682;2023-11-21T01:28:31;1.65;;;1.23;;
21472;SDS011;10898;48.072;11.682;2023-11-21T01:30:33;1.73;;;1.15;;
21472;SDS011;10898;48.072;11.682;2023-11-21T01:32:35;2.67;;;1.23;;
21472;SDS011;10898;48.072;11.682;2023-11-21T01:34:41;2.53;;;1.00;;
21472;SDS011;10898;48.072;11.682;2023-11-21T01:36:42;2.60;;;1.00;;
21472;SDS011;10898;48.072;11.682;2023-11-21T01:38:46;2.70;;;1.48;;
21472;SDS011;10898;48.072;11.682;2023-11-21T01:42:52;1.30;;;1.20;;
21472;SDS011;10898;48.072;11.682;2023-11-21T01:44:54;3.70;;;1.00;;
21472;SDS011;10898;48.072;11.682;2023-11-21T01:46:56;1.75;;;1.23;;
21472;SDS011;10898;48.072;11.682;2023-11-21T01:48:58;4.22;;;1.38;;
21472;SDS011;10898;48.072;11.682;2023-11-21T01:51:00;2.80;;;1.50;;
21472;SDS011;10898;48.072;11.682;2023-11-21T01:53:03;3.05;;;1.60;;
21472;SDS011;10898;48.072;11.682;2023-11-21T01:55:06;4.13;;;1.50;;
21472;SDS011;10898;48.072;11.682;2023-11-21T01:57:09;4.75;;;1.52;;
21472;SDS011;10898;48.072;11.682;2023-11-21T01:59:11;2.20;;;1.40;;
21472;SDS011;10898;48.072;11.682;2023-11-21T02:01:15;2.03;;;1.40;;
21472;SDS011;10898;48.072;11.682;2023-11-21T02:03:16;1.80;;;1.40;;
21472;SDS011;10898;48.072;11.682;2023-11-21T02:05:19;3.75;;;2.58;;
21472;SDS011;10898;48.072;11.682;2023-11-21T02:07:21;2.85;;;1.38;;
21472;SDS011;10898;48.072;11.682;2023-11-21T02:09:27;2.33;;;1.45;;
21472;SDS011;10898;48.072;11.682;2023-11-21T02:11:31;4.32;;;1.55;;
21472;SDS011;10898;48.072;11.682;2023-11-21T02:13:36;2.80;;;1.52;;
21472;SDS011;10898;48.072;11.682;2023-11-21T02:15:38;3.13;;;1.53;;
21472;SDS011;10898;48.072;11.682;2023-11-21T02:17:40;3.30;;;1.30;;
21472;SDS011;10898;48.072;11.682;2023-11-21T02:19:43;2.85;;;1.10;;
21472;SDS011;10898;48.072;11.682;2023-11-21T02:21:51;2.33;;;1.10;;
21472;SDS011;10898;48.072;11.682;2023-11-21T02:23:54;3.60;;;1.60;;
21472;SDS011;10898;48.072;11.682;2023-11-21T02:25:56;2.63;;;1.20;;
21472;SDS011;10898;48.072;11.682;2023-11-21T02:27:59;1.70;;;1.42;;
21472;SDS011;10898;48.072;11.682;2023-11-21T02:30:03;1.92;;;1.50;;
21472;SDS011;10898;48.072;11.682;2023-11-21T02:32:06;2.42;;;1.20;;
21472;SDS011;10898;48.072;11.682;2023-11-21T02:34:08;4.07;;;1.27;;
21472;SDS011;10898;48.072;11.682;2023-11-21T02:36:10;6.05;;;1.35;;
21472;SDS011;10898;48.072;11.682;2023-11-21T02:38:11;1.85;;;1.30;;
21472;SDS011;10898;48.072;11.682;2023-11-21T02:40:13;6.17;;;1.63;;
21472;SDS011;10898;48.072;11.682;2023-11-21T02:42:19;1.38;;;1.20;;
21472;SDS011;10898;48.072;11.682;2023-11-21T02:44:21;3.30;;;1.53;;
21472;SDS011;10898;48.072;11.682;2023-11-21T02:46:22;2.23;;;1.53;;
21472;SDS011;10898;48.072;11.682;2023-11-21T02:48:24;3.00;;;1.80;;
21472;SDS011;10898;48.072;11.682;2023-11-21T02:50:27;2.90;;;1.20;;
21472;SDS011;10898;48.072;11.682;2023-11-21T02:52:29;2.80;;;1.58;;
21472;SDS011;10898;48.072;11.682;2023-11-21T02:54:31;2.97;;;1.23;;
21472;SDS011;10898;48.072;11.682;2023-11-21T02:56:37;1.58;;;1.40;;
21472;SDS011;10898;48.072;11.682;2023-11-21T02:58:41;2.45;;;1.23;;
21472;SDS011;10898;48.072;11.682;2023-11-21T03:00:45;3.28;;;1.35;;
21472;SDS011;10898;48.072;11.682;2023-11-21T03:02:47;1.80;;;1.50;;
21472;SDS011;10898;48.072;11.682;2023-11-21T03:04:49;2.92;;;1.60;;
21472;SDS011;10898;48.072;11.682;2023-11-21T03:06:51;4.30;;;1.50;;
21472;SDS011;10898;48.072;11.682;2023-11-21T03:08:52;2.17;;;1.47;;
21472;SDS011;10898;48.072;11.682;2023-11-21T03:10:54;4.60;;;1.27;;
21472;SDS011;10898;48.072;11.682;2023-11-21T03:14:59;1.85;;;1.50;;
21472;SDS011;10898;48.072;11.682;2023-11-21T03:17:01;5.18;;;1.50;;
21472;SDS011;10898;48.072;11.682;2023-11-21T03:19:03;2.58;;;1.30;;
21472;SDS011;10898;48.072;11.682;2023-11-21T03:21:05;2.50;;;1.30;;
21472;SDS011;10898;48.072;11.682;2023-11-21T03:23:09;3.10;;;1.17;;
21472;SDS011;10898;48.072;11.682;2023-11-21T03:25:11;1.73;;;1.13;;
21472;SDS011;10898;48.072;11.682;2023-11-21T03:27:14;1.95;;;1.10;;
21472;SDS011;10898;48.072;11.682;2023-11-21T03:29:16;3.55;;;1.25;;
21472;SDS011;10898;48.072;11.682;2023-11-21T03:31:18;3.88;;;1.55;;
21472;SDS011;10898;48.072;11.682;2023-11-21T03:33:20;3.92;;;1.80;;
21472;SDS011;10898;48.072;11.682;2023-11-21T03:35:22;1.55;;;1.13;;
21472;SDS011;10898;48.072;11.682;2023-11-21T03:37:24;2.92;;;1.40;;
21472;SDS011;10898;48.072;11.682;2023-11-21T03:39:26;2.15;;;1.27;;
21472;SDS011;10898;48.072;11.682;2023-11-21T03:41:28;2.13;;;1.10;;
21472;SDS011;10898;48.072;11.682;2023-11-21T03:43:30;2.17;;;1.20;;
21472;SDS011;10898;48.072;11.682;2023-11-21T03:45:32;2.30;;;1.13;;
21472;SDS011;10898;48.072;11.682;2023-11-21T03:47:34;2.80;;;1.20;;
21472;SDS011;10898;48.072;11.682;2023-11-21T03:49:36;2.58;;;1.10;;
21472;SDS011;10898;48.072;11.682;2023-11-21T03:51:38;2.05;;;1.08;;
21472;SDS011;10898;48.072;11.682;2023-11-21T03:53:40;1.37;;;1.00;;
21472;SDS011;10898;48.072;11.682;2023-11-21T03:55:42;2.33;;;1.70;;
21472;SDS011;10898;48.072;11.682;2023-11-21T03:57:43;2.50;;;1.23;;
21472;SDS011;10898;48.072;11.682;2023-11-21T03:59:45;1.27;;;1.13;;
21472;SDS011;10898;48.072;11.682;2023-11-21T04:01:47;2.15;;;1.00;;
21472;SDS011;10898;48.072;11.682;2023-11-21T04:03:49;1.67;;;1.38;;
21472;SDS011;10898;48.072;11.682;2023-11-21T04:05:52;1.77;;;1.20;;
21472;SDS011;10898;48.072;11.682;2023-11-21T04:07:54;1.83;;;0.97;;
21472;SDS011;10898;48.072;11.682;2023-11-21T04:09:56;2.03;;;0.80;;
21472;SDS011;10898;48.072;11.682;2023-11-21T04:11:58;2.08;;;1.30;;
21472;SDS011;10898;48.072;11.682;2023-11-21T04:14:00;1.92;;;1.35;;
21472;SDS011;10898;48.072;11.682;2023-11-21T04:16:01;2.97;;;1.20;;
21472;SDS011;10898;48.072;11.682;2023-11-21T04:18:04;1.42;;;1.08;;
21472;SDS011;10898;48.072;11.682;2023-11-21T04:20:06;1.65;;;1.23;;
21472;SDS011;10898;48.072;11.682;2023-11-21T04:22:12;1.95;;;1.02;;
21472;SDS011;10898;48.072;11.682;2023-11-21T04:24:14;2.08;;;1.15;;
21472;SDS011;10898;48.072;11.682;2023-11-21T04:26:16;1.05;;;1.00;;
21472;SDS011;10898;48.072;11.682;2023-11-21T04:28:18;2.25;;;1.20;;
21472;SDS011;10898;48.072;11.682;2023-11-21T04:30:21;1.27;;;1.17;;
21472;SDS011;10898;48.072;11.682;2023-11-21T04:32:22;2.23;;;1.30;;
21472;SDS011;10898;48.072;11.682;2023-11-21T04:34:24;2.00;;;1.43;;
21472;SDS011;10898;48.072;11.682;2023-11-21T04:36:26;1.77;;;1.00;;
21472;SDS011;10898;48.072;11.682;2023-11-21T04:38:28;2.00;;;1.20;;
21472;SDS011;10898;48.072;11.682;2023-11-21T04:40:29;1.47;;;1.07;;
21472;SDS011;10898;48.072;11.682;2023-11-21T04:42:33;1.83;;;0.90;;
21472;SDS011;10898;48.072;11.682;2023-11-21T04:44:38;3.67;;;1.30;;
21472;SDS011;10898;48.072;11.682;2023-11-21T04:46:42;1.40;;;1.30;;
21472;SDS011;10898;48.072;11.682;2023-11-21T04:48:44;3.42;;;1.23;;
21472;SDS011;10898;48.072;11.682;2023-11-21T04:50:46;0.93;;;0.83;;
21472;SDS011;10898;48.072;11.682;2023-11-21T04:52:47;3.27;;;1.30;;
21472;SDS011;10898;48.072;11.682;2023-11-21T04:54:49;2.60;;;1.40;;
21472;SDS011;10898;48.072;11.682;2023-11-21T04:56:51;1.43;;;0.93;;
21472;SDS011;10898;48.072;11.682;2023-11-21T04:58:53;1.67;;;1.00;;
21472;SDS011;10898;48.072;11.682;2023-11-21T05:00:55;2.72;;;1.00;;
21472;SDS011;10898;48.072;11.682;2023-11-21T05:02:57;1.13;;;1.03;;
21472;SDS011;10898;48.072;11.682;2023-11-21T05:04:59;1.35;;;1.00;;
21472;SDS011;10898;48.072;11.682;2023-11-21T05:07:01;1.13;;;1.05;;
21472;SDS011;10898;48.072;11.682;2023-11-21T05:09:03;1.83;;;1.30;;
21472;SDS011;10898;48.072;11.682;2023-11-21T05:11:05;1.17;;;1.07;;
21472;SDS011;10898;48.072;11.682;2023-11-21T05:13:08;2.90;;;1.30;;
21472;SDS011;10898;48.072;11.682;2023-11-21T05:15:13;2.05;;;1.20;;
21472;SDS011;10898;48.072;11.682;2023-11-21T05:17:16;2.22;;;1.10;;
21472;SDS011;10898;48.072;11.682;2023-11-21T05:19:18;2.13;;;1.17;;
21472;SDS011;10898;48.072;11.682;2023-11-21T05:21:20;1.13;;;1.00;;
21472;SDS011;10898;48.072;11.682;2023-11-21T05:23:22;2.55;;;0.90;;
21472;SDS011;10898;48.072;11.682;2023-11-21T05:25:24;2.45;;;1.10;;
21472;SDS011;10898;48.072;11.682;2023-11-21T05:27:26;2.03;;;1.10;;
21472;SDS011;10898;48.072;11.682;2023-11-21T05:29:27;2.30;;;1.27;;
21472;SDS011;10898;48.072;11.682;2023-11-21T05:31:29;1.93;;;0.97;;
21472;SDS011;10898;48.072;11.682;2023-11-21T05:33:31;2.47;;;1.00;;
21472;SDS011;10898;48.072;11.682;2023-11-21T05:35:34;1.77;;;1.00;;
21472;SDS011;10898;48.072;11.682;2023-11-21T05:37:36;4.93;;;1.27;;
21472;SDS011;10898;48.072;11.682;2023-11-21T05:39:39;2.78;;;1.20;;
21472;SDS011;10898;48.072;11.682;2023-11-21T05:41:41;1.77;;;0.98;;
21472;SDS011;10898;48.072;11.682;2023-11-21T05:43:43;2.23;;;1.17;;
21472;SDS011;10898;48.072;11.682;2023-11-21T05:45:45;1.65;;;1.05;;
21472;SDS011;10898;48.072;11.682;2023-11-21T05:47:47;1.13;;;0.85;;
21472;SDS011;10898;48.072;11.682;2023-11-21T05:49:49;3.50;;;1.07;;
21472;SDS011;10898;48.072;11.682;2023-11-21T05:51:53;1.73;;;1.17;;
21472;SDS011;10898;48.072;11.682;2023-11-21T05:53:55;1.08;;;1.08;;
21472;SDS011;10898;48.072;11.682;2023-11-21T05:55:57;1.73;;;1.37;;
21472;SDS011;10898;48.072;11.682;2023-11-21T05:57:59;1.63;;;1.08;;
21472;SDS011;10898;48.072;11.682;2023-11-21T06:00:00;1.33;;;1.00;;
21472;SDS011;10898;48.072;11.682;2023-11-21T06:02:11;2.28;;;1.20;;
21472;SDS011;10898;48.072;11.682;2023-11-21T06:04:13;1.70;;;1.20;;
21472;SDS011;10898;48.072;11.682;2023-11-21T06:06:15;2.40;;;1.77;;
21472;SDS011;10898;48.072;11.682;2023-11-21T06:08:17;2.57;;;1.50;;
21472;SDS011;10898;48.072;11.682;2023-11-21T06:10:20;2.10;;;1.13;;
21472;SDS011;10898;48.072;11.682;2023-11-21T06:12:22;2.83;;;1.30;;
21472;SDS011;10898;48.072;11.682;2023-11-21T06:14:24;1.17;;;1.07;;
21472;SDS011;10898;48.072;11.682;2023-11-21T06:16:26;1.35;;;0.90;;
21472;SDS011;10898;48.072;11.682;2023-11-21T06:18:29;1.40;;;1.10;;
21472;SDS011;10898;48.072;11.682;2023-11-21T06:20:31;3.03;;;1.00;;
21472;SDS011;10898;48.072;11.682;2023-11-21T06:22:33;2.58;;;1.10;;
21472;SDS011;10898;48.072;11.682;2023-11-21T06:24:35;2.10;;;0.88;;
21472;SDS011;10898;48.072;11.682;2023-11-21T06:26:37;1.02;;;1.00;;
21472;SDS011;10898;48.072;11.682;2023-11-21T06:28:39;1.88;;;1.15;;
21472;SDS011;10898;48.072;11.682;2023-11-21T06:30:42;1.58;;;1.45;;
21472;SDS011;10898;48.072;11.682;2023-11-21T06:32:45;1.25;;;1.15;;
21472;SDS011;10898;48.072;11.682;2023-11-21T06:34:48;1.25;;;1.15;;
21472;SDS011;10898;48.072;11.682;2023-11-21T06:36:50;2.92;;;1.33;;
21472;SDS011;10898;48.072;11.682;2023-11-21T06:38:52;1.77;;;1.40;;
21472;SDS011;10898;48.072;11.682;2023-11-21T06:40:54;1.40;;;1.30;;
21472;SDS011;10898;48.072;11.682;2023-11-21T06:42:56;1.58;;;1.30;;
21472;SDS011;10898;48.072;11.682;2023-11-21T06:44:59;1.73;;;1.42;;
21472;SDS011;10898;48.072;11.682;2023-11-21T06:47:05;2.47;;;1.33;;
21472;SDS011;10898;48.072;11.682;2023-11-21T06:49:07;1.52;;;1.20;;
21472;SDS011;10898;48.072;11.682;2023-11-21T06:51:09;2.33;;;1.33;;
21472;SDS011;10898;48.072;11.682;2023-11-21T06:53:10;2.72;;;1.50;;
21472;SDS011;10898;48.072;11.682;2023-11-21T06:55:12;2.22;;;1.27;;
21472;SDS011;10898;48.072;11.682;2023-11-21T06:57:14;2.20;;;1.30;;
21472;SDS011;10898;48.072;11.682;2023-11-21T06:59:16;1.50;;;1.13;;
21472;SDS011;10898;48.072;11.682;2023-11-21T07:01:18;1.45;;;1.08;;
21472;SDS011;10898;48.072;11.682;2023-11-21T07:03:20;1.75;;;1.38;;
21472;SDS011;10898;48.072;11.682;2023-11-21T07:05:22;1.83;;;1.10;;
21472;SDS011;10898;48.072;11.682;2023-11-21T07:07:24;1.35;;;1.20;;
21472;SDS011;10898;48.072;11.682;2023-11-21T07:09:26;1.15;;;1.05;;
21472;SDS011;10898;48.072;11.682;2023-11-21T07:11:28;1.73;;;1.40;;
21472;SDS011;10898;48.072;11.682;2023-11-21T07:13:30;1.33;;;1.17;;
21472;SDS011;10898;48.072;11.682;2023-11-21T07:15:32;2.33;;;1.17;;
21472;SDS011;10898;48.072;11.682;2023-11-21T07:19:40;1.23;;;1.00;;
21472;SDS011;10898;48.072;11.682;2023-11-21T07:21:43;2.53;;;1.30;;
21472;SDS011;10898;48.072;11.682;2023-11-21T07:23:44;1.27;;;0.90;;
21472;SDS011;10898;48.072;11.682;2023-11-21T07:25:46;2.78;;;1.33;;
21472;SDS011;10898;48.072;11.682;2023-11-21T07:27:48;1.77;;;1.25;;
21472;SDS011;10898;48.072;11.682;2023-11-21T07:29:50;2.47;;;1.17;;
21472;SDS011;10898;48.072;11.682;2023-11-21T07:31:52;2.17;;;1.20;;
21472;SDS011;10898;48.072;11.682;2023-11-21T07:33:55;1.00;;;1.00;;
21472;SDS011;10898;48.072;11.682;2023-11-21T07:35:58;1.27;;;1.00;;
21472;SDS011;10898;48.072;11.682;2023-11-21T07:38:00;1.90;;;1.10;;
21472;SDS011;10898;48.072;11.682;2023-11-21T07:40:02;1.73;;;1.20;;
21472;SDS011;10898;48.072;11.682;2023-11-21T07:42:04;2.30;;;1.23;;
21472;SDS011;10898;48.072;11.682;2023-11-21T07:44:06;2.60;;;1.00;;
21472;SDS011;10898;48.072;11.682;2023-11-21T07:46:08;1.07;;;0.90;;
21472;SDS011;10898;48.072;11.682;2023-11-21T07:48:10;1.23;;;1.13;;
21472;SDS011;10898;48.072;11.682;2023-11-21T07:50:12;1.00;;;1.00;;
21472;SDS011;10898;48.072;11.682;2023-11-21T07:52:15;1.23;;;1.10;;
21472;SDS011;10898;48.072;11.682;2023-11-21T07:54:17;1.13;;;1.10;;
21472;SDS011;10898;48.072;11.682;2023-11-21T07:56:19;1.20;;;1.10;;
21472;SDS011;10898;48.072;11.682;2023-11-21T07:58:21;0.97;;;0.97;;
21472;SDS011;10898;48.072;11.682;2023-11-21T08:00:22;1.37;;;1.13;;
21472;SDS011;10898;48.072;11.682;2023-11-21T08:02:25;1.08;;;0.98;;
21472;SDS011;10898;48.072;11.682;2023-11-21T08:04:28;1.40;;;1.13;;
21472;SDS011;10898;48.072;11.682;2023-11-21T08:06:34;1.13;;;1.00;;
21472;SDS011;10898;48.072;11.682;2023-11-21T08:08:36;1.43;;;1.23;;
21472;SDS011;10898;48.072;11.682;2023-11-21T08:10:38;0.85;;;0.85;;
21472;SDS011;10898;48.072;11.682;2023-11-21T08:12:40;1.00;;;1.00;;
21472;SDS011;10898;48.072;11.682;2023-11-21T08:14:43;1.48;;;1.10;;
21472;SDS011;10898;48.072;11.682;2023-11-21T08:16:45;1.00;;;0.90;;
21472;SDS011;10898;48.072;11.682;2023-11-21T08:18:48;2.05;;;1.45;;
21472;SDS011;10898;48.072;11.682;2023-11-21T08:20:50;1.98;;;1.33;;
21472;SDS011;10898;48.072;11.682;2023-11-21T08:22:51;1.73;;;1.20;;
21472;SDS011;10898;48.072;11.682;2023-11-21T08:24:54;0.93;;;0.93;;
21472;SDS011;10898;48.072;11.682;2023-11-21T08:26:57;6.13;;;1.30;;
21472;SDS011;10898;48.072;11.682;2023-11-21T08:31:02;0.70;;;0.70;;
21472;SDS011;10898;48.072;11.682;2023-11-21T08:33:05;0.80;;;0.80;;
21472;SDS011;10898;48.072;11.682;2023-11-21T08:35:08;1.20;;;1.20;;
21472;SDS011;10898;48.072;11.682;2023-11-21T08:37:10;1.15;;;0.93;;
21472;SDS011;10898;48.072;11.682;2023-11-21T08:41:17;2.33;;;1.02;;
21472;SDS011;10898;48.072;11.682;2023-11-21T08:43:22;1.27;;;0.82;;
21472;SDS011;10898;48.072;11.682;2023-11-21T08:45:25;1.35;;;1.00;;
21472;SDS011;10898;48.072;11.682;2023-11-21T08:47:27;1.37;;;1.10;;
21472;SDS011;10898;48.072;11.682;2023-11-21T08:49:29;1.77;;;1.10;;
21472;SDS011;10898;48.072;11.682;2023-11-21T08:51:31;1.90;;;1.10;;
21472;SDS011;10898;48.072;11.682;2023-11-21T08:53:33;1.00;;;1.00;;
21472;SDS011;10898;48.072;11.682;2023-11-21T08:55:34;2.97;;;1.30;;
21472;SDS011;10898;48.072;11.682;2023-11-21T08:57:39;1.92;;;1.27;;
21472;SDS011;10898;48.072;11.682;2023-11-21T08:59:42;1.55;;;1.20;;
21472;SDS011;10898;48.072;11.682;2023-11-21T09:01:44;1.40;;;1.20;;
21472;SDS011;10898;48.072;11.682;2023-11-21T09:03:46;1.30;;;1.10;;
21472;SDS011;10898;48.072;11.682;2023-11-21T09:05:48;1.38;;;1.00;;
21472;SDS011;10898;48.072;11.682;2023-11-21T09:07:50;2.30;;;1.30;;
21472;SDS011;10898;48.072;11.682;2023-11-21T09:09:52;1.75;;;1.30;;
21472;SDS011;10898;48.072;11.682;2023-11-21T09:11:54;1.40;;;0.98;;
21472;SDS011;10898;48.072;11.682;2023-11-21T09:13:56;1.10;;;0.97;;
21472;SDS011;10898;48.072;11.682;2023-11-21T09:15:59;2.10;;;0.80;;
21472;SDS011;10898;48.072;11.682;2023-11-21T09:18:01;1.55;;;1.15;;
21472;SDS011;10898;48.072;11.682;2023-11-21T09:20:03;2.03;;;0.90;;
21472;SDS011;10898;48.072;11.682;2023-11-21T09:22:07;1.50;;;0.95;;
21472;SDS011;10898;48.072;11.682;2023-11-21T09:24:09;2.77;;;1.20;;
21472;SDS011;10898;48.072;11.682;2023-11-21T09:26:10;1.37;;;1.27;;
21472;SDS011;10898;48.072;11.682;2023-11-21T09:28:12;2.40;;;1.13;;
21472;SDS011;10898;48.072;11.682;2023-11-21T09:30:14;1.30;;;1.20;;
21472;SDS011;10898;48.072;11.682;2023-11-21T09:32:16;1.70;;;1.17;;
21472;SDS011;10898;48.072;11.682;2023-11-21T09:34:20;1.30;;;1.20;;
21472;SDS011;10898;48.072;11.682;2023-11-21T09:36:22;1.10;;;1.00;;
21472;SDS011;10898;48.072;11.682;2023-11-21T09:38:28;1.58;;;0.90;;
21472;SDS011;10898;48.072;11.682;2023-11-21T09:40:30;2.42;;;1.20;;
21472;SDS011;10898;48.072;11.682;2023-11-21T09:44:48;1.45;;;1.30;;
21472;SDS011;10898;48.072;11.682;2023-11-21T09:47:00;1.10;;;1.02;;
21472;SDS011;10898;48.072;11.682;2023-11-21T09:49:04;1.25;;;1.08;;
21472;SDS011;10898;48.072;11.682;2023-11-21T09:51:09;1.27;;;1.10;;
21472;SDS011;10898;48.072;11.682;2023-11-21T09:55:17;1.67;;;1.23;;
21472;SDS011;10898;48.072;11.682;2023-11-21T09:57:23;1.20;;;1.10;;
21472;SDS011;10898;48.072;11.682;2023-11-21T09:59:27;2.05;;;1.40;;
21472;SDS011;10898;48.072;11.682;2023-11-21T10:01:31;2.90;;;1.30;;
21472;SDS011;10898;48.072;11.682;2023-11-21T10:03:35;1.42;;;1.20;;
21472;SDS011;10898;48.072;11.682;2023-11-21T10:05:39;1.55;;;1.17;;
21472;SDS011;10898;48.072;11.682;2023-11-21T10:07:43;1.67;;;1.38;;
21472;SDS011;10898;48.072;11.682;2023-11-21T10:09:49;1.38;;;1.10;;
21472;SDS011;10898;48.072;11.682;2023-11-21T10:11:52;1.58;;;1.48;;
21472;SDS011;10898;48.072;11.682;2023-11-21T10:13:55;4.20;;;1.50;;
21472;SDS011;10898;48.072;11.682;2023-11-21T10:16:01;1.85;;;1.02;;
21472;SDS011;10898;48.072;11.682;2023-11-21T10:18:07;2.03;;;1.40;;
21472;SDS011;10898;48.072;11.682;2023-11-21T10:20:10;3.15;;;1.27;;
21472;SDS011;10898;48.072;11.682;2023-11-21T10:22:14;1.17;;;1.08;;
21472;SDS011;10898;48.072;11.682;2023-11-21T10:24:17;1.20;;;1.10;;
21472;SDS011;10898;48.072;11.682;2023-11-21T10:26:21;0.95;;;0.95;;
21472;SDS011;10898;48.072;11.682;2023-11-21T10:28:35;2.22;;;0.85;;
21472;SDS011;10898;48.072;11.682;2023-11-21T10:30:38;1.63;;;0.80;;
21472;SDS011;10898;48.072;11.682;2023-11-21T10:32:41;3.05;;;1.20;;
21472;SDS011;10898;48.072;11.682;2023-11-21T10:34:55;2.22;;;1.10;;
21472;SDS011;10898;48.072;11.682;2023-11-21T10:36:57;1.83;;;1.00;;
21472;SDS011;10898;48.072;11.682;2023-11-21T10:38:59;1.25;;;1.10;;
21472;SDS011;10898;48.072;11.682;2023-11-21T10:41:01;1.27;;;1.02;;
21472;SDS011;10898;48.072;11.682;2023-11-21T10:43:06;2.95;;;1.40;;
21472;SDS011;10898;48.072;11.682;2023-11-21T10:45:11;1.00;;;0.90;;
21472;SDS011;10898;48.072;11.682;2023-11-21T10:47:16;2.53;;;1.27;;
21472;SDS011;10898;48.072;11.682;2023-11-21T10:49:20;1.40;;;1.30;;
21472;SDS011;10898;48.072;11.682;2023-11-21T10:51:22;1.90;;;1.25;;
21472;SDS011;10898;48.072;11.682;2023-11-21T10:53:28;1.17;;;1.08;;
21472;SDS011;10898;48.072;11.682;2023-11-21T10:55:31;1.35;;;0.95;;
21472;SDS011;10898;48.072;11.682;2023-11-21T10:57:34;1.42;;;1.10;;
21472;SDS011;10898;48.072;11.682;2023-11-21T10:59:36;2.80;;;1.35;;
21472;SDS011;10898;48.072;11.682;2023-11-21T11:01:44;2.00;;;1.33;;
21472;SDS011;10898;48.072;11.682;2023-11-21T11:03:47;2.38;;;1.13;;
21472;SDS011;10898;48.072;11.682;2023-11-21T11:05:50;6.50;;;1.70;;
21472;SDS011;10898;48.072;11.682;2023-11-21T11:08:08;4.15;;;1.50;;
21472;SDS011;10898;48.072;11.682;2023-11-21T11:10:12;3.60;;;2.75;;
21472;SDS011;10898;48.072;11.682;2023-11-21T11:12:16;3.63;;;1.75;;
21472;SDS011;10898;48.072;11.682;2023-11-21T11:16:21;4.80;;;2.33;;
21472;SDS011;10898;48.072;11.682;2023-11-21T11:20:31;4.60;;;1.95;;
21472;SDS011;10898;48.072;11.682;2023-11-21T11:27:10;3.53;;;2.15;;
21472;SDS011;10898;48.072;11.682;2023-11-21T11:33:54;3.55;;;1.50;;
21472;SDS011;10898;48.072;11.682;2023-11-21T11:36:05;4.95;;;2.30;;
21472;SDS011;10898;48.072;11.682;2023-11-21T11:38:13;6.35;;;3.22;;
21472;SDS011;10898;48.072;11.682;2023-11-21T11:40:15;6.57;;;3.53;;
21472;SDS011;10898;48.072;11.682;2023-11-21T11:42:17;7.97;;;3.50;;
21472;SDS011;10898;48.072;11.682;2023-11-21T11:44:53;3.65;;;1.67;;
21472;SDS011;10898;48.072;11.682;2023-11-21T11:46:50;1.83;;;1.48;;
21472;SDS011;10898;48.072;11.682;2023-11-21T11:49:03;3.78;;;1.75;;
21472;SDS011;10898;48.072;11.682;2023-11-21T11:51:14;2.63;;;1.20;;
21472;SDS011;10898;48.072;11.682;2023-11-21T11:53:18;1.75;;;1.60;;
21472;SDS011;10898;48.072;11.682;2023-11-21T11:55:22;1.75;;;1.58;;
21472;SDS011;10898;48.072;11.682;2023-11-21T11:57:26;2.35;;;1.30;;
21472;SDS011;10898;48.072;11.682;2023-11-21T11:59:30;1.27;;;1.08;;
21472;SDS011;10898;48.072;11.682;2023-11-21T12:02:12;2.80;;;1.10;;
21472;SDS011;10898;48.072;11.682;2023-11-21T12:06:30;1.55;;;1.08;;
21472;SDS011;10898;48.072;11.682;2023-11-21T12:08:35;1.33;;;1.23;;
21472;SDS011;10898;48.072;11.682;2023-11-21T12:12:42;2.22;;;1.20;;
21472;SDS011;10898;48.072;11.682;2023-11-21T12:14:45;2.33;;;1.23;;
21472;SDS011;10898;48.072;11.682;2023-11-21T12:16:47;1.10;;;1.00;;
21472;SDS011;10898;48.072;11.682;2023-11-21T12:18:49;1.42;;;1.27;;
21472;SDS011;10898;48.072;11.682;2023-11-21T12:20:51;1.70;;;1.23;;
21472;SDS011;10898;48.072;11.682;2023-11-21T12:22:54;1.98;;;1.00;;
21472;SDS011;10898;48.072;11.682;2023-11-21T12:24:57;1.67;;;1.25;;
21472;SDS011;10898;48.072;11.682;2023-11-21T12:27:00;1.25;;;1.10;;
21472;SDS011;10898;48.072;11.682;2023-11-21T12:29:02;1.15;;;1.13;;
21472;SDS011;10898;48.072;11.682;2023-11-21T12:31:05;2.33;;;1.23;;
21472;SDS011;10898;48.072;11.682;2023-11-21T12:33:22;1.67;;;1.13;;
21472;SDS011;10898;48.072;11.682;2023-11-21T12:35:24;2.03;;;1.03;;
21472;SDS011;10898;48.072;11.682;2023-11-21T12:37:31;1.50;;;1.40;;
21472;SDS011;10898;48.072;11.682;2023-11-21T12:39:33;1.35;;;1.20;;
21472;SDS011;10898;48.072;11.682;2023-11-21T12:41:35;2.80;;;1.73;;
21472;SDS011;10898;48.072;11.682;2023-11-21T12:43:37;1.93;;;0.93;;